createdAt,value
2019-05-17T00:01:37.652Z,11.34
2019-05-17T00:04:07.336Z,11.25
2019-05-17T00:06:36.921Z,11.24
2019-05-17T00:09:07.882Z,11.22
2019-05-17T00:11:36.881Z,11.27
2019-05-17T00:14:06.343Z,11.26
2019-05-17T00:16:37.558Z,11.28
2019-05-17T00:19:07.518Z,11.29
2019-05-17T00:21:36.911Z,11.28
2019-05-17T00:24:06.638Z,11.30
2019-05-17T00:26:39.825Z,11.31
2019-05-17T00:29:08.746Z,11.29
2019-05-17T00:31:37.491Z,11.23
2019-05-17T00:34:07.294Z,11.24
2019-05-17T00:36:37.440Z,11.28
2019-05-17T00:39:07.637Z,11.23
2019-05-17T00:41:37.465Z,11.24
2019-05-17T00:44:06.547Z,11.27
2019-05-17T00:46:37.288Z,11.18
2019-05-17T00:49:06.502Z,11.20
2019-05-17T00:51:36.924Z,11.20
2019-05-17T00:54:06.818Z,11.18
2019-05-17T00:56:37.300Z,11.13
2019-05-17T00:59:07.461Z,11.15
2019-05-17T01:01:37.104Z,11.20
2019-05-17T01:04:06.906Z,11.17
2019-05-17T01:06:37.616Z,11.12
2019-05-17T01:09:08.199Z,11.13
2019-05-17T01:11:36.946Z,11.10
2019-05-17T01:14:06.815Z,11.14
2019-05-17T01:16:36.810Z,11.09
2019-05-17T01:19:06.889Z,11.13
2019-05-17T01:21:36.696Z,11.07
2019-05-17T01:24:06.937Z,11.11
2019-05-17T01:26:37.385Z,11.06
2019-05-17T01:29:06.808Z,10.99
2019-05-17T01:31:37.324Z,10.96
2019-05-17T01:34:07.404Z,10.90
2019-05-17T01:36:37.277Z,10.91
2019-05-17T01:39:16.971Z,10.93
2019-05-17T01:41:37.331Z,10.85
2019-05-17T01:44:07.520Z,10.80
2019-05-17T01:46:37.180Z,10.80
2019-05-17T01:49:06.966Z,10.88
2019-05-17T01:51:37.088Z,10.93
2019-05-17T01:54:06.851Z,10.96
2019-05-17T01:56:37.143Z,10.88
2019-05-17T01:59:06.830Z,10.91
2019-05-17T02:01:37.078Z,10.97
2019-05-17T02:04:06.805Z,10.97
2019-05-17T02:06:36.679Z,10.91
2019-05-17T02:09:07.592Z,10.94
2019-05-17T02:11:37.363Z,10.99
2019-05-17T02:14:07.035Z,10.92
2019-05-17T02:16:37.685Z,10.93
2019-05-17T02:19:06.819Z,11.03
2019-05-17T02:21:38.926Z,11.04
2019-05-17T02:24:07.944Z,10.97
2019-05-17T02:26:37.592Z,10.95
2019-05-17T02:29:06.420Z,10.94
2019-05-17T02:31:37.339Z,10.95
2019-05-17T02:34:06.436Z,10.99
2019-05-17T02:36:35.209Z,10.98
2019-05-17T02:39:05.401Z,11.01
2019-05-17T02:41:34.372Z,10.99
2019-05-17T02:44:03.908Z,10.89
2019-05-17T02:46:33.844Z,10.93
2019-05-17T02:49:03.451Z,10.86
2019-05-17T02:51:32.659Z,10.87
2019-05-17T02:54:04.071Z,10.87
2019-05-17T02:56:32.752Z,10.88
2019-05-17T02:59:03.608Z,10.94
2019-05-17T03:01:33.471Z,10.88
2019-05-17T03:04:03.919Z,10.88
2019-05-17T03:06:33.552Z,10.75
2019-05-17T03:09:03.340Z,10.81
2019-05-17T03:11:33.268Z,10.86
2019-05-17T03:14:04.103Z,10.90
2019-05-17T03:16:34.076Z,10.87
2019-05-17T03:19:04.300Z,10.91
2019-05-17T03:21:33.961Z,10.99
2019-05-17T03:24:04.074Z,10.97
2019-05-17T03:26:33.113Z,10.93
2019-05-17T03:29:03.411Z,10.90
2019-05-17T03:31:40.528Z,10.96
2019-05-17T03:34:06.398Z,10.96
2019-05-17T03:36:36.394Z,11.05
2019-05-17T03:39:07.506Z,11.07
2019-05-17T03:41:36.270Z,9.71
2019-05-17T03:44:05.332Z,11.02
2019-05-17T03:46:34.167Z,10.96
2019-05-17T03:49:03.937Z,10.97
2019-05-17T03:51:33.618Z,10.97
2019-05-17T03:54:02.672Z,11.01
2019-05-17T03:56:32.978Z,10.91
2019-05-17T03:59:03.740Z,10.92
2019-05-17T04:01:32.915Z,10.88
2019-05-17T04:04:03.089Z,10.86
2019-05-17T04:06:32.909Z,10.82
2019-05-17T04:09:03.760Z,10.93
2019-05-17T04:11:36.523Z,10.86
2019-05-17T04:14:03.597Z,10.88
2019-05-17T04:16:33.911Z,10.95
2019-05-17T04:19:04.551Z,10.95
2019-05-17T04:21:34.204Z,10.93
2019-05-17T04:24:03.511Z,10.99
2019-05-17T04:26:32.864Z,11.02
2019-05-17T04:29:03.581Z,11.09
2019-05-17T04:31:34.870Z,11.12
2019-05-17T04:34:03.319Z,11.14
2019-05-17T04:36:36.107Z,11.17
2019-05-17T04:39:09.141Z,11.13
2019-05-17T04:41:45.643Z,11.10
2019-05-17T04:44:08.996Z,11.20
2019-05-17T04:46:37.727Z,11.26
2019-05-17T04:49:06.680Z,11.30
2019-05-17T04:51:35.576Z,11.22
2019-05-17T04:54:05.164Z,11.27
2019-05-17T04:56:34.108Z,10.64
2019-05-17T04:59:16.278Z,11.38
2019-05-17T05:02:03.475Z,11.36
2019-05-17T05:04:38.151Z,11.29
2019-05-17T05:07:04.230Z,11.21
2019-05-17T05:09:33.091Z,11.31
2019-05-17T05:12:05.951Z,11.29
2019-05-17T05:14:33.030Z,11.34
2019-05-17T05:17:02.698Z,11.30
2019-05-17T05:19:33.072Z,11.30
2019-05-17T05:22:04.541Z,11.37
2019-05-17T05:24:32.651Z,11.37
2019-05-17T05:27:02.627Z,11.38
2019-05-17T05:29:32.128Z,11.41
2019-05-17T05:32:02.630Z,11.48
2019-05-17T05:34:32.215Z,11.54
2019-05-17T05:37:02.357Z,11.52
2019-05-17T05:39:41.291Z,11.55
2019-05-17T05:42:11.615Z,11.56
2019-05-17T05:44:41.595Z,11.68
2019-05-17T05:47:11.603Z,11.69
2019-05-17T05:49:42.600Z,11.76
2019-05-17T05:52:12.570Z,11.85
2019-05-17T05:54:42.254Z,11.86
2019-05-17T05:57:12.633Z,11.97
2019-05-17T05:59:42.512Z,11.92
2019-05-17T06:02:12.324Z,11.97
2019-05-17T06:04:42.370Z,11.90
2019-05-17T06:07:12.899Z,11.81
2019-05-17T06:09:42.393Z,11.75
2019-05-17T06:12:22.973Z,11.67
2019-05-17T06:14:42.314Z,11.67
2019-05-17T06:17:12.616Z,11.66
2019-05-17T06:19:42.288Z,11.74
2019-05-17T06:22:12.019Z,11.74
2019-05-17T06:24:42.543Z,11.72
2019-05-17T06:27:12.379Z,11.95
2019-05-17T06:29:42.075Z,12.22
2019-05-17T06:32:11.890Z,12.42
2019-05-17T06:34:42.295Z,12.54
2019-05-17T06:37:12.996Z,12.58
2019-05-17T06:39:42.577Z,12.59
2019-05-17T06:42:12.104Z,12.56
2019-05-17T06:44:41.796Z,12.40
2019-05-17T06:47:12.087Z,12.14
2019-05-17T06:49:42.365Z,11.91
2019-05-17T06:52:12.455Z,12.17
2019-05-17T06:54:41.723Z,12.18
2019-05-17T06:57:12.852Z,12.55
2019-05-17T06:59:42.094Z,12.23
2019-05-17T07:02:10.829Z,12.36
2019-05-17T07:04:39.674Z,12.33
2019-05-17T07:07:26.439Z,12.49
2019-05-17T07:10:00.264Z,12.62
2019-05-17T07:12:30.684Z,12.53
2019-05-17T07:15:01.649Z,12.37
2019-05-17T07:17:30.514Z,12.32
2019-05-17T07:19:59.912Z,12.26
2019-05-17T07:22:29.609Z,12.27
2019-05-17T07:24:59.748Z,12.20
2019-05-17T07:27:41.028Z,12.14
2019-05-17T07:29:59.811Z,12.12
2019-05-17T07:32:29.742Z,12.37
2019-05-17T07:35:00.008Z,12.60
2019-05-17T07:37:30.331Z,12.47
2019-05-17T07:40:04.759Z,12.79
2019-05-17T07:42:29.941Z,12.70
2019-05-17T07:45:00.544Z,12.92
2019-05-17T07:47:29.590Z,13.31
2019-05-17T07:50:00.977Z,13.98
2019-05-17T07:52:29.971Z,14.54
2019-05-17T07:55:02.370Z,13.89
2019-05-17T07:57:30.126Z,14.10
2019-05-17T07:59:59.964Z,13.95
2019-05-17T08:02:30.697Z,14.02
2019-05-17T08:05:00.446Z,14.06
2019-05-17T08:07:31.636Z,14.32
2019-05-17T08:10:00.472Z,14.16
2019-05-17T08:12:30.410Z,14.24
2019-05-17T08:15:00.124Z,14.24
2019-05-17T08:17:30.504Z,14.36
2019-05-17T08:20:00.560Z,14.48
2019-05-17T08:22:30.023Z,14.74
2019-05-17T08:25:00.030Z,14.70
2019-05-17T08:27:29.923Z,14.66
2019-05-17T08:29:59.837Z,14.36
2019-05-17T08:32:31.493Z,14.12
2019-05-17T08:35:00.399Z,13.92
2019-05-17T08:37:30.159Z,13.84
2019-05-17T08:40:01.656Z,13.39
2019-05-17T08:42:30.488Z,13.35
2019-05-17T08:45:00.294Z,13.43
2019-05-17T08:47:30.175Z,13.62
2019-05-17T08:50:02.011Z,13.83
2019-05-17T08:52:30.768Z,14.00
2019-05-17T08:55:00.413Z,13.73
2019-05-17T08:57:30.365Z,13.62
2019-05-17T09:00:00.884Z,13.84
2019-05-17T09:02:30.114Z,13.79
2019-05-17T09:05:00.418Z,13.94
2019-05-17T09:07:32.501Z,13.87
2019-05-17T09:10:01.972Z,13.71
2019-05-17T09:12:31.774Z,13.80
2019-05-17T09:15:00.970Z,13.39
2019-05-17T09:17:30.027Z,13.44
2019-05-17T09:20:00.733Z,13.30
2019-05-17T09:22:30.573Z,13.22
2019-05-17T09:24:59.696Z,12.99
2019-05-17T09:27:30.067Z,12.92
2019-05-17T09:30:00.065Z,13.01
2019-05-17T09:32:29.680Z,12.90
2019-05-17T09:35:00.351Z,12.90
2019-05-17T09:37:30.305Z,12.93
2019-05-17T09:40:00.372Z,12.74
2019-05-17T09:42:30.128Z,12.73
2019-05-17T09:45:00.416Z,12.71
2019-05-17T09:47:31.008Z,12.69
2019-05-17T09:50:00.536Z,12.65
2019-05-17T09:52:29.934Z,12.66
2019-05-17T09:55:00.535Z,12.48
2019-05-17T09:57:29.807Z,12.45
2019-05-17T10:00:00.170Z,12.55
2019-05-17T10:02:29.174Z,12.84
2019-05-17T10:04:59.872Z,13.23
2019-05-17T10:07:29.851Z,13.53
2019-05-17T10:09:59.804Z,13.81
2019-05-17T10:12:29.095Z,13.89
2019-05-17T10:15:00.300Z,14.29
2019-05-17T10:17:29.485Z,14.29
2019-05-17T10:19:59.932Z,14.44
2019-05-17T10:22:30.352Z,14.00
2019-05-17T10:25:00.294Z,13.69
2019-05-17T10:27:30.329Z,13.76
2019-05-17T10:29:59.495Z,13.65
2019-05-17T10:32:30.914Z,13.72
2019-05-17T10:35:08.318Z,13.99
2019-05-17T10:37:40.723Z,13.91
2019-05-17T10:40:10.528Z,14.02
2019-05-17T10:42:39.913Z,13.91
2019-05-17T10:45:10.885Z,14.30
2019-05-17T10:47:40.220Z,14.46
2019-05-17T10:50:10.770Z,14.31
2019-05-17T10:52:40.958Z,14.74
2019-05-17T10:55:11.012Z,14.50
2019-05-17T10:57:39.946Z,14.61
2019-05-17T11:00:11.675Z,14.73
2019-05-17T11:02:50.865Z,14.54
2019-05-17T11:05:20.375Z,14.38
2019-05-17T11:07:50.651Z,14.11
2019-05-17T11:10:20.129Z,14.09
2019-05-17T11:12:49.022Z,13.69
2019-05-17T11:15:17.929Z,13.63
2019-05-17T11:17:51.854Z,13.78
2019-05-17T11:20:25.547Z,13.93
2019-05-17T11:22:54.530Z,13.65
2019-05-17T11:25:26.517Z,13.61
2019-05-17T11:27:59.034Z,13.61
2019-05-17T11:30:29.786Z,13.62
2019-05-17T11:32:58.643Z,13.45
2019-05-17T11:35:27.607Z,13.58
2019-05-17T11:37:56.389Z,13.94
2019-05-17T11:40:25.415Z,14.01
2019-05-17T11:42:54.188Z,14.12
2019-05-17T11:45:27.580Z,14.17
2019-05-17T11:47:53.589Z,14.20
2019-05-17T11:50:22.435Z,13.85
2019-05-17T11:52:51.209Z,13.66
2019-05-17T11:55:20.061Z,13.85
2019-05-17T11:57:48.900Z,13.73
2019-05-17T12:00:19.600Z,13.81
2019-05-17T12:02:48.355Z,14.03
2019-05-17T12:05:17.555Z,14.27
2019-05-17T12:07:46.363Z,14.25
2019-05-17T12:10:15.523Z,14.57
2019-05-17T12:12:44.326Z,14.32
2019-05-17T12:15:14.405Z,13.48
2019-05-17T12:17:43.225Z,14.12
2019-05-17T12:20:13.250Z,14.29
2019-05-17T12:22:42.030Z,14.24
2019-05-17T12:25:11.249Z,14.38
2019-05-17T12:27:40.024Z,14.22
2019-05-17T12:30:11.489Z,14.03
2019-05-17T12:32:40.231Z,14.06
2019-05-17T12:35:09.175Z,14.16
2019-05-17T12:37:38.005Z,14.27
2019-05-17T12:40:08.606Z,14.20
2019-05-17T12:42:37.378Z,13.94
2019-05-17T12:45:07.414Z,13.88
2019-05-17T12:47:36.478Z,14.00
2019-05-17T12:50:07.482Z,14.10
2019-05-17T12:52:36.321Z,14.02
2019-05-17T12:55:08.411Z,13.97
2019-05-17T12:57:37.342Z,13.98
2019-05-17T13:00:07.959Z,13.97
2019-05-17T13:02:42.254Z,14.00
2019-05-17T13:05:15.667Z,14.09
2019-05-17T13:07:46.682Z,14.07
2019-05-17T13:10:18.817Z,14.20
2019-05-17T13:12:47.805Z,14.33
2019-05-17T13:15:16.746Z,12.80
2019-05-17T13:17:45.636Z,14.05
2019-05-17T13:20:15.711Z,13.96
2019-05-17T13:22:44.568Z,13.80
2019-05-17T13:25:13.466Z,13.65
2019-05-17T13:27:42.469Z,13.70
2019-05-17T13:30:11.545Z,13.73
2019-05-17T13:32:40.327Z,13.91
2019-05-17T13:35:09.898Z,14.10
2019-05-17T13:37:46.100Z,14.43
2019-05-17T13:40:15.481Z,14.35
2019-05-17T13:42:44.343Z,14.28
2019-05-17T13:45:14.127Z,14.33
2019-05-17T13:47:43.025Z,14.15
2019-05-17T13:50:12.027Z,13.76
2019-05-17T13:52:41.884Z,13.50
2019-05-17T13:55:12.356Z,13.50
2019-05-17T13:57:41.133Z,13.47
2019-05-17T14:00:10.996Z,13.56
2019-05-17T14:02:39.743Z,13.61
2019-05-17T14:05:09.802Z,13.74
2019-05-17T14:07:38.801Z,13.93
2019-05-17T14:10:24.633Z,14.01
2019-05-17T14:12:39.678Z,13.96
2019-05-17T14:15:11.098Z,13.84
2019-05-17T14:17:39.806Z,13.87
2019-05-17T14:20:08.937Z,13.77
2019-05-17T14:22:38.523Z,13.86
2019-05-17T14:25:08.023Z,13.83
2019-05-17T14:27:36.784Z,13.85
2019-05-17T14:30:08.260Z,14.11
2019-05-17T14:32:37.087Z,14.32
2019-05-17T14:35:06.949Z,14.80
2019-05-17T14:37:35.728Z,15.08
2019-05-17T14:40:07.136Z,14.93
2019-05-17T14:42:38.033Z,14.78
2019-05-17T14:45:08.076Z,14.91
2019-05-17T14:47:36.849Z,14.95
2019-05-17T14:50:09.350Z,14.57
2019-05-17T14:52:38.120Z,14.67
2019-05-17T14:55:07.061Z,14.74
2019-05-17T14:57:35.825Z,14.80
2019-05-17T15:00:07.204Z,14.90
2019-05-17T15:02:36.522Z,14.67
2019-05-17T15:05:07.061Z,14.84
2019-05-17T15:07:36.782Z,14.93
2019-05-17T15:10:09.383Z,15.27
2019-05-17T15:12:38.176Z,15.21
2019-05-17T15:15:08.429Z,15.19
2019-05-17T15:17:37.506Z,15.14
2019-05-17T15:20:09.741Z,15.13
2019-05-17T15:22:40.071Z,15.28
2019-05-17T15:25:09.261Z,15.49
2019-05-17T15:27:39.312Z,15.71
2019-05-17T15:30:08.547Z,15.81
2019-05-17T15:32:37.749Z,15.71
2019-05-17T15:35:08.623Z,15.90
2019-05-17T15:37:37.981Z,15.88
2019-05-17T15:40:08.135Z,15.94
2019-05-17T15:42:44.249Z,15.92
2019-05-17T15:45:09.792Z,15.64
2019-05-17T15:47:38.657Z,15.98
2019-05-17T15:50:09.173Z,16.01
2019-05-17T15:52:38.238Z,16.01
2019-05-17T15:55:08.370Z,16.05
2019-05-17T15:57:37.233Z,15.83
2019-05-17T16:00:08.762Z,15.68
2019-05-17T16:02:37.568Z,15.47
2019-05-17T16:05:07.081Z,15.39
2019-05-17T16:07:35.830Z,15.26
2019-05-17T16:10:08.084Z,15.13
2019-05-17T16:12:37.099Z,15.18
2019-05-17T16:15:10.691Z,15.18
2019-05-17T16:17:39.520Z,15.38
2019-05-17T16:20:08.766Z,15.25
2019-05-17T16:22:37.541Z,15.26
2019-05-17T16:25:07.777Z,15.24
2019-05-17T16:27:36.555Z,15.48
2019-05-17T16:30:07.814Z,15.41
2019-05-17T16:32:45.666Z,15.20
2019-05-17T16:35:14.698Z,15.18
2019-05-17T16:37:43.436Z,15.18
2019-05-17T16:40:14.394Z,15.07
2019-05-17T16:42:43.279Z,14.99
2019-05-17T16:45:15.325Z,14.94
2019-05-17T16:47:44.075Z,14.94
2019-05-17T16:50:13.203Z,14.74
2019-05-17T16:52:41.989Z,14.86
2019-05-17T16:55:12.014Z,14.77
2019-05-17T16:57:40.973Z,14.78
2019-05-17T17:00:24.546Z,14.79
2019-05-17T17:02:53.357Z,14.77
2019-05-17T17:05:22.259Z,14.77
2019-05-17T17:07:51.124Z,14.90
2019-05-17T17:10:19.910Z,14.89
2019-05-17T17:12:49.754Z,14.82
2019-05-17T17:15:19.334Z,14.95
2019-05-17T17:17:48.331Z,14.97
2019-05-17T17:20:17.988Z,14.00
2019-05-17T17:22:46.918Z,14.94
2019-05-17T17:25:15.793Z,14.96
2019-05-17T17:27:48.292Z,14.84
2019-05-17T17:30:18.470Z,14.86
2019-05-17T17:32:47.259Z,14.89
2019-05-17T17:35:17.321Z,14.91
2019-05-17T17:37:46.084Z,14.83
2019-05-17T17:40:21.222Z,14.77
2019-05-17T17:42:55.550Z,14.70
2019-05-17T17:45:26.925Z,14.90
2019-05-17T17:47:55.746Z,14.96
2019-05-17T17:50:25.929Z,14.93
2019-05-17T17:52:54.923Z,14.94
2019-05-17T17:55:24.393Z,15.05
2019-05-17T17:57:53.253Z,15.08
2019-05-17T18:00:22.795Z,15.11
2019-05-17T18:02:51.847Z,15.06
2019-05-17T18:05:20.732Z,15.10
2019-05-17T18:07:49.464Z,15.07
2019-05-17T18:10:29.914Z,15.08
2019-05-17T18:12:59.233Z,15.08
2019-05-17T18:15:37.429Z,15.04
2019-05-17T18:18:10.591Z,15.01
2019-05-17T18:20:39.881Z,14.90
2019-05-17T18:23:09.181Z,14.89
2019-05-17T18:25:38.354Z,14.87
2019-05-17T18:28:08.193Z,14.88
2019-05-17T18:30:37.454Z,14.79
2019-05-17T18:33:06.732Z,14.79
2019-05-17T18:35:36.103Z,14.79
2019-05-17T18:38:06.140Z,14.76
2019-05-17T18:40:39.228Z,14.75
2019-05-17T18:43:10.978Z,13.39
2019-05-17T18:45:40.173Z,14.72
2019-05-17T18:48:09.347Z,14.68
2019-05-17T18:50:38.617Z,14.63
2019-05-17T18:53:16.308Z,14.58
2019-05-17T18:55:38.273Z,14.63
2019-05-17T18:58:13.364Z,14.55
2019-05-17T19:00:42.972Z,14.51
2019-05-17T19:03:12.088Z,14.39
2019-05-17T19:05:40.982Z,14.55
2019-05-17T19:08:09.858Z,14.65
2019-05-17T19:10:40.129Z,14.57
2019-05-17T19:13:11.424Z,14.49
2019-05-17T19:15:40.431Z,14.54
2019-05-17T19:18:09.469Z,14.42
2019-05-17T19:20:40.715Z,14.52
2019-05-17T19:23:11.465Z,14.44
2019-05-17T19:25:40.222Z,14.45
2019-05-17T19:28:09.456Z,14.41
2019-05-17T19:30:38.674Z,14.41
2019-05-17T19:33:09.717Z,14.34
2019-05-17T19:35:40.381Z,14.30
2019-05-17T19:38:11.287Z,14.25
2019-05-17T19:40:40.651Z,14.29
2019-05-17T19:43:09.377Z,14.32
2019-05-17T19:45:41.337Z,14.29
2019-05-17T19:48:10.234Z,14.31
2019-05-17T19:50:40.197Z,14.34
2019-05-17T19:53:10.803Z,14.36
2019-05-17T19:55:39.761Z,14.36
2019-05-17T19:58:08.848Z,14.38
2019-05-17T20:00:39.522Z,14.32
2019-05-17T20:03:09.080Z,14.33
2019-05-17T20:05:39.878Z,14.37
2019-05-17T20:08:08.673Z,14.32
2019-05-17T20:10:37.719Z,14.32
2019-05-17T20:13:09.469Z,14.32
2019-05-17T20:15:38.478Z,14.23
2019-05-17T20:18:07.460Z,14.31
2019-05-17T20:20:36.315Z,14.29
2019-05-17T20:23:05.348Z,14.23
2019-05-17T20:25:34.102Z,14.21
2019-05-17T20:28:03.104Z,14.18
2019-05-17T20:30:34.787Z,14.22
2019-05-17T20:33:04.057Z,14.11
2019-05-17T20:35:37.598Z,14.02
2019-05-17T20:38:08.398Z,14.09
2019-05-17T20:40:40.356Z,14.12
2019-05-17T20:43:09.158Z,14.13
2019-05-17T20:45:38.502Z,14.09
2019-05-17T20:48:07.234Z,13.99
2019-05-17T20:50:35.998Z,13.97
2019-05-17T20:53:17.931Z,13.55
2019-05-17T20:55:35.531Z,11.98
2019-05-17T20:58:05.316Z,13.76
2019-05-17T21:00:34.089Z,12.97
2019-05-17T21:03:02.854Z,13.74
2019-05-17T21:05:31.671Z,13.66
2019-05-17T21:08:00.504Z,13.64
2019-05-17T21:10:29.299Z,13.66
2019-05-17T21:12:58.209Z,13.62
2019-05-17T21:15:27.652Z,13.63
2019-05-17T21:17:56.571Z,13.64
2019-05-17T21:20:25.317Z,13.54
2019-05-17T21:22:54.117Z,13.54
2019-05-17T21:25:23.028Z,13.53
2019-05-17T21:27:51.960Z,13.43
2019-05-17T21:30:20.845Z,13.40
2019-05-17T21:32:49.637Z,13.38
2019-05-17T21:35:18.417Z,13.39
2019-05-17T21:37:47.183Z,13.33
2019-05-17T21:40:17.252Z,13.32
2019-05-17T21:42:46.082Z,13.27
2019-05-17T21:45:15.271Z,13.32
2019-05-17T21:47:44.026Z,13.21
2019-05-17T21:50:13.108Z,13.21
2019-05-17T21:52:46.545Z,13.24
2019-05-17T21:55:15.797Z,13.28
2019-05-17T21:57:44.627Z,13.22
2019-05-17T22:00:16.977Z,13.18
2019-05-17T22:02:46.435Z,13.16
2019-05-17T22:05:17.983Z,13.12
2019-05-17T22:07:46.917Z,13.14
2019-05-17T22:10:17.401Z,13.12
2019-05-17T22:12:46.572Z,13.05
2019-05-17T22:15:15.337Z,13.07
2019-05-17T22:17:44.078Z,13.16
2019-05-17T22:20:12.913Z,13.16
2019-05-17T22:22:41.714Z,13.22
2019-05-17T22:25:10.465Z,13.23
2019-05-17T22:27:39.348Z,13.25
2019-05-17T22:30:08.465Z,13.25
2019-05-17T22:32:37.146Z,13.29
2019-05-17T22:35:07.321Z,13.29
2019-05-17T22:37:36.143Z,13.30
2019-05-17T22:40:07.374Z,13.32
2019-05-17T22:42:39.143Z,13.32
2019-05-17T22:45:07.557Z,13.36
2019-05-17T22:47:36.334Z,13.40
2019-05-17T22:50:06.421Z,13.39
2019-05-17T22:52:35.251Z,13.41
2019-05-17T22:55:05.519Z,13.35
2019-05-17T22:57:34.322Z,13.40
2019-05-17T23:00:03.229Z,13.40
2019-05-17T23:02:32.061Z,13.38
2019-05-17T23:05:00.951Z,13.35
2019-05-17T23:07:29.865Z,13.37
2019-05-17T23:09:58.709Z,13.33
2019-05-17T23:12:27.528Z,13.33
2019-05-17T23:14:56.404Z,13.32
2019-05-17T23:17:25.226Z,13.33
2019-05-17T23:19:54.096Z,13.32
2019-05-17T23:22:22.844Z,13.22
2019-05-17T23:24:51.707Z,13.22
2019-05-17T23:27:20.453Z,13.30
2019-05-17T23:29:49.248Z,13.24
2019-05-17T23:32:18.231Z,13.21
2019-05-17T23:34:47.081Z,13.22
2019-05-17T23:37:15.857Z,13.17
2019-05-17T23:39:44.639Z,13.07
2019-05-17T23:42:13.597Z,13.03
2019-05-17T23:44:42.482Z,12.98
2019-05-17T23:47:11.250Z,12.96
2019-05-17T23:49:40.023Z,12.90
2019-05-17T23:52:08.825Z,12.77
2019-05-17T23:54:37.570Z,12.77
2019-05-17T23:57:06.350Z,12.71
2019-05-17T23:59:35.125Z,12.59
